createdAt,value
2019-03-27T00:02:14.156Z,59.00
2019-03-27T00:04:46.544Z,59.50
2019-03-27T00:07:37.307Z,59.70
2019-03-27T00:16:02.492Z,61.00
2019-03-27T00:18:46.042Z,60.90
2019-03-27T00:21:27.577Z,61.30
2019-03-27T00:24:10.771Z,61.30
2019-03-27T00:26:53.305Z,61.40
2019-03-27T00:29:35.956Z,61.70
2019-03-27T00:32:18.112Z,61.30
2019-03-27T00:35:02.211Z,61.10
2019-03-27T00:40:38.150Z,60.90
2019-03-27T00:43:21.714Z,61.20
2019-03-27T00:46:04.292Z,61.00
2019-03-27T00:48:48.273Z,61.40
2019-03-27T00:51:31.277Z,61.40
2019-03-27T00:54:14.785Z,61.50
2019-03-27T00:56:57.583Z,61.20
2019-03-27T00:59:42.399Z,60.90
2019-03-27T01:02:23.890Z,61.10
2019-03-27T01:05:06.321Z,60.60
2019-03-27T01:07:47.837Z,61.50
2019-03-27T01:10:30.591Z,61.90
2019-03-27T01:13:12.723Z,61.90
2019-03-27T01:15:56.508Z,61.70
2019-03-27T01:18:38.287Z,61.70
2019-03-27T01:21:21.021Z,62.00
2019-03-27T01:26:58.034Z,62.30
2019-03-27T01:29:41.731Z,62.50
2019-03-27T01:32:14.057Z,62.50
2019-03-27T01:35:04.318Z,62.50
2019-03-27T01:37:59.260Z,62.30
2019-03-27T01:40:41.823Z,62.30
2019-03-27T01:43:23.695Z,62.10
2019-03-27T01:46:07.263Z,62.50
2019-03-27T01:48:55.373Z,62.60
2019-03-27T01:54:19.257Z,63.20
2019-03-27T01:57:05.995Z,63.30
2019-03-27T01:59:50.758Z,63.50
2019-03-27T02:02:33.589Z,63.80
2019-03-27T02:05:18.781Z,63.60
2019-03-27T02:08:03.283Z,63.30
2019-03-27T02:10:45.753Z,63.00
2019-03-27T02:16:24.843Z,62.60
2019-03-27T02:19:07.949Z,62.30
2019-03-27T02:21:50.885Z,62.10
2019-03-27T02:24:33.833Z,62.40
2019-03-27T02:30:10.028Z,63.30
2019-03-27T02:32:52.752Z,63.70
2019-03-27T02:35:34.306Z,63.70
2019-03-27T02:38:17.178Z,63.90
2019-03-27T02:40:58.217Z,64.30
2019-03-27T02:43:41.369Z,64.20
2019-03-27T02:46:25.505Z,63.70
2019-03-27T02:49:08.531Z,63.30
2019-03-27T02:51:49.890Z,63.10
2019-03-27T02:54:33.541Z,62.90
2019-03-27T02:57:16.000Z,63.20
2019-03-27T02:59:47.695Z,63.30
2019-03-27T03:05:18.194Z,62.70
2019-03-27T03:07:59.974Z,63.80
2019-03-27T03:10:45.467Z,64.20
2019-03-27T03:13:25.846Z,64.20
2019-03-27T03:16:09.710Z,64.50
2019-03-27T03:18:51.243Z,64.40
2019-03-27T03:21:34.588Z,64.50
2019-03-27T03:24:16.542Z,64.50
2019-03-27T03:27:00.008Z,64.00
2019-03-27T03:29:41.372Z,63.60
2019-03-27T03:32:25.463Z,64.00
2019-03-27T03:35:07.909Z,62.80
2019-03-27T03:37:50.946Z,62.90
2019-03-27T03:40:33.313Z,63.50
2019-03-27T03:43:19.212Z,63.70
2019-03-27T03:46:00.955Z,63.40
2019-03-27T03:48:44.892Z,63.70
2019-03-27T03:51:26.023Z,63.90
2019-03-27T03:57:04.758Z,64.20
2019-03-27T03:59:47.801Z,64.30
2019-03-27T04:02:28.991Z,64.30
2019-03-27T04:05:13.453Z,64.50
2019-03-27T04:07:55.080Z,64.60
2019-03-27T04:10:38.440Z,64.40
2019-03-27T04:13:20.699Z,64.10
2019-03-27T04:16:03.862Z,64.20
2019-03-27T04:18:45.292Z,64.00
2019-03-27T04:21:31.596Z,64.30
2019-03-27T04:24:13.201Z,64.20
2019-03-27T04:26:55.936Z,64.00
2019-03-27T04:29:37.720Z,63.80
2019-03-27T04:32:20.557Z,63.60
2019-03-27T04:35:04.711Z,63.30
2019-03-27T04:37:53.366Z,63.60
2019-03-27T04:40:35.752Z,64.00
2019-03-27T04:43:19.323Z,64.30
2019-03-27T04:51:29.981Z,64.60
2019-03-27T04:54:02.020Z,64.80
2019-03-27T04:56:33.062Z,64.90
2019-03-27T04:59:04.077Z,64.90
2019-03-27T05:01:35.698Z,64.90
2019-03-27T05:07:23.244Z,64.50
2019-03-27T05:10:06.308Z,64.30
2019-03-27T05:12:49.639Z,64.30
2019-03-27T05:15:32.713Z,64.30
2019-03-27T05:18:14.216Z,64.20
2019-03-27T05:20:45.371Z,63.90
2019-03-27T05:26:36.143Z,64.60
2019-03-27T05:32:01.867Z,65.10
2019-03-27T05:34:45.724Z,65.50
2019-03-27T05:37:27.173Z,65.60
2019-03-27T05:40:10.708Z,65.70
2019-03-27T05:43:00.530Z,65.70
2019-03-27T05:45:38.205Z,65.80
2019-03-27T05:48:19.826Z,66.10
2019-03-27T05:51:03.494Z,66.30
2019-03-27T05:53:44.938Z,66.40
2019-03-27T05:56:28.661Z,66.40
2019-03-27T05:59:10.449Z,66.50
2019-03-27T06:01:53.793Z,66.60
2019-03-27T06:04:25.984Z,66.90
2019-03-27T06:07:16.045Z,66.90
2019-03-27T06:09:47.308Z,67.10
2019-03-27T06:12:37.958Z,67.30
2019-03-27T06:15:09.631Z,67.30
2019-03-27T06:17:41.293Z,67.20
2019-03-27T06:20:12.434Z,67.40
2019-03-27T06:22:43.842Z,67.40
2019-03-27T06:25:15.582Z,67.60
2019-03-27T06:27:46.600Z,67.70
2019-03-27T06:30:36.174Z,68.00
2019-03-27T06:33:07.541Z,68.00
2019-03-27T06:35:57.437Z,68.20
2019-03-27T06:38:28.961Z,68.30
2019-03-27T06:41:19.072Z,68.20
2019-03-27T06:43:50.628Z,68.30
2019-03-27T06:46:22.106Z,68.00
2019-03-27T06:48:53.221Z,67.80
2019-03-27T06:51:25.437Z,67.70
2019-03-27T06:53:56.780Z,67.80
2019-03-27T06:56:28.201Z,67.70
2019-03-27T06:58:59.592Z,67.70
2019-03-27T07:01:34.773Z,67.70
2019-03-27T07:04:25.487Z,68.20
2019-03-27T07:06:56.388Z,68.10
2019-03-27T07:09:28.180Z,67.90
2019-03-27T07:11:59.736Z,67.80
2019-03-27T07:14:31.058Z,67.50
2019-03-27T07:17:02.539Z,67.20
2019-03-27T07:19:33.522Z,66.70
2019-03-27T07:22:04.833Z,66.20
2019-03-27T07:24:36.835Z,65.80
2019-03-27T07:27:08.031Z,65.10
2019-03-27T07:29:41.407Z,65.10
2019-03-27T07:32:12.621Z,64.80
2019-03-27T07:34:45.885Z,64.60
2019-03-27T07:37:17.077Z,64.50
2019-03-27T07:39:48.219Z,64.80
2019-03-27T07:42:38.417Z,64.70
2019-03-27T07:47:53.810Z,63.50
2019-03-27T07:50:25.194Z,63.00
2019-03-27T07:52:56.373Z,62.00
2019-03-27T07:55:46.876Z,62.10
2019-03-27T08:01:02.829Z,62.20
2019-03-27T08:03:35.348Z,62.10
2019-03-27T08:06:07.084Z,62.10
2019-03-27T08:09:00.824Z,62.00
2019-03-27T08:11:42.646Z,61.00
2019-03-27T08:14:13.721Z,61.00
2019-03-27T08:16:46.404Z,60.10
2019-03-27T08:19:17.819Z,59.70
2019-03-27T08:22:07.964Z,59.80
2019-03-27T08:24:41.176Z,59.70
2019-03-27T08:27:14.555Z,58.80
2019-03-27T08:29:46.096Z,58.80
2019-03-27T08:32:19.611Z,58.30
2019-03-27T08:34:50.732Z,57.80
2019-03-27T08:37:23.609Z,57.40
2019-03-27T08:39:57.017Z,57.50
2019-03-27T08:42:28.925Z,56.90
2019-03-27T08:45:00.372Z,56.50
2019-03-27T08:47:50.214Z,56.40
2019-03-27T08:50:21.491Z,56.30
2019-03-27T08:52:53.484Z,55.70
2019-03-27T08:55:50.309Z,55.80
2019-03-27T08:58:45.792Z,55.10
2019-03-27T09:07:27.043Z,54.90
2019-03-27T09:10:27.426Z,53.60
2019-03-27T09:13:25.646Z,53.70
2019-03-27T09:16:33.739Z,52.30
2019-03-27T09:19:35.445Z,52.20
2019-03-27T09:22:22.487Z,51.00
2019-03-27T09:25:29.099Z,51.20
2019-03-27T09:31:43.635Z,51.00
2019-03-27T09:34:42.693Z,51.00
2019-03-27T09:41:15.255Z,50.30
2019-03-27T09:44:24.204Z,50.70
2019-03-27T09:49:56.032Z,50.30
2019-03-27T09:55:37.737Z,49.60
2019-03-27T09:58:19.089Z,49.70
2019-03-27T10:06:44.431Z,49.30
2019-03-27T10:13:25.941Z,49.30
2019-03-27T10:28:04.280Z,49.00
2019-03-27T10:30:35.184Z,49.60
2019-03-27T10:33:08.813Z,48.70
2019-03-27T10:42:12.378Z,48.80
2019-03-27T10:44:45.281Z,47.20
2019-03-27T10:47:28.020Z,46.80
2019-03-27T10:50:00.431Z,46.30
2019-03-27T10:52:32.534Z,46.60
2019-03-27T11:00:57.979Z,47.00
2019-03-27T11:03:48.103Z,46.30
2019-03-27T11:18:04.838Z,45.30
2019-03-27T11:20:41.625Z,45.70
2019-03-27T11:26:12.935Z,46.50
2019-03-27T11:28:45.402Z,45.80
2019-03-27T11:31:26.788Z,44.30
2019-03-27T11:36:43.304Z,44.50
2019-03-27T11:42:35.918Z,43.80
2019-03-27T11:45:13.755Z,44.60
2019-03-27T11:47:49.074Z,43.50
2019-03-27T11:50:23.135Z,43.40
2019-03-27T11:52:58.775Z,43.60
2019-03-27T11:55:33.703Z,43.50
2019-03-27T12:04:05.711Z,43.60
2019-03-27T12:09:46.818Z,43.60
2019-03-27T12:13:04.081Z,43.90
2019-03-27T12:15:43.375Z,44.60
2019-03-27T12:21:13.824Z,43.90
2019-03-27T12:26:33.274Z,44.60
2019-03-27T12:29:09.571Z,44.30
2019-03-27T12:48:23.673Z,43.00
2019-03-27T12:53:43.396Z,41.60
2019-03-27T13:05:27.296Z,43.10
2019-03-27T13:07:59.335Z,41.60
2019-03-27T13:10:32.009Z,43.60
2019-03-27T13:13:13.499Z,43.70
2019-03-27T13:15:45.565Z,43.20
2019-03-27T13:18:17.687Z,42.20
2019-03-27T13:21:11.325Z,43.30
2019-03-27T13:23:44.526Z,42.30
2019-03-27T13:26:36.464Z,43.00
2019-03-27T13:29:31.231Z,43.10
2019-03-27T13:32:06.774Z,43.20
2019-03-27T13:34:59.038Z,43.20
2019-03-27T13:40:16.930Z,40.10
2019-03-27T13:42:54.908Z,40.60
2019-03-27T13:45:26.920Z,41.20
2019-03-27T13:48:18.218Z,41.10
2019-03-27T13:50:51.018Z,40.20
2019-03-27T13:53:22.920Z,40.90
2019-03-27T13:55:55.295Z,40.30
2019-03-27T13:58:48.632Z,40.60
2019-03-27T14:01:20.417Z,39.40
2019-03-27T14:04:01.042Z,40.20
2019-03-27T14:06:33.630Z,39.30
2019-03-27T14:09:25.379Z,39.30
2019-03-27T14:12:10.071Z,39.60
2019-03-27T14:14:50.115Z,39.50
2019-03-27T14:17:19.285Z,39.80
2019-03-27T14:19:56.076Z,39.50
2019-03-27T14:22:32.423Z,39.50
2019-03-27T14:25:03.987Z,39.30
2019-03-27T14:27:55.315Z,39.20
2019-03-27T14:30:40.106Z,39.60
2019-03-27T14:33:13.752Z,39.30
2019-03-27T14:35:49.596Z,39.20
2019-03-27T14:38:21.866Z,37.70
2019-03-27T14:40:54.139Z,37.50
2019-03-27T14:43:27.981Z,37.00
2019-03-27T14:46:00.319Z,37.20
2019-03-27T14:48:33.337Z,38.50
2019-03-27T14:51:24.508Z,38.00
2019-03-27T14:53:56.959Z,37.50
2019-03-27T14:56:50.328Z,37.60
2019-03-27T14:59:35.074Z,37.70
2019-03-27T15:02:11.409Z,36.00
2019-03-27T15:04:48.560Z,36.50
2019-03-27T15:07:23.885Z,36.80
2019-03-27T15:09:55.607Z,36.80
2019-03-27T15:12:47.048Z,35.70
2019-03-27T15:15:19.593Z,35.10
2019-03-27T15:17:53.207Z,34.90
2019-03-27T15:20:25.393Z,35.40
2019-03-27T15:22:57.402Z,35.70
2019-03-27T15:25:32.049Z,35.40
2019-03-27T15:28:25.034Z,35.10
2019-03-27T15:30:57.539Z,35.30
2019-03-27T15:36:18.138Z,33.70
2019-03-27T15:38:51.316Z,33.40
2019-03-27T15:41:23.683Z,34.00
2019-03-27T15:43:59.599Z,31.90
2019-03-27T15:46:51.205Z,32.10
2019-03-27T15:49:23.353Z,31.80
2019-03-27T15:52:14.469Z,31.70
2019-03-27T15:54:48.159Z,32.60
2019-03-27T15:57:31.453Z,32.30
2019-03-27T16:00:14.719Z,32.10
2019-03-27T16:02:47.974Z,32.60
2019-03-27T16:05:40.009Z,31.60
2019-03-27T16:08:17.472Z,32.10
2019-03-27T16:11:13.722Z,33.00
2019-03-27T16:13:46.061Z,33.60
2019-03-27T16:16:18.458Z,33.00
2019-03-27T16:19:12.960Z,33.30
2019-03-27T16:21:44.587Z,33.70
2019-03-27T16:24:41.220Z,34.70
2019-03-27T16:27:22.729Z,34.30
2019-03-27T16:30:17.151Z,35.20
2019-03-27T16:32:49.656Z,36.00
2019-03-27T16:35:23.420Z,35.00
2019-03-27T16:37:56.015Z,35.80
2019-03-27T16:40:46.591Z,35.20
2019-03-27T16:43:19.342Z,36.20
2019-03-27T16:48:44.673Z,37.70
2019-03-27T16:51:20.854Z,37.50
2019-03-27T16:53:56.363Z,37.50
2019-03-27T16:56:49.525Z,37.30
2019-03-27T16:59:27.279Z,37.30
2019-03-27T17:02:17.515Z,37.60
2019-03-27T17:04:52.382Z,37.90
2019-03-27T17:07:24.042Z,38.10
2019-03-27T17:09:58.485Z,38.10
2019-03-27T17:12:31.600Z,38.70
2019-03-27T17:15:23.835Z,39.00
2019-03-27T17:17:57.161Z,39.00
2019-03-27T17:20:28.943Z,39.60
2019-03-27T17:23:19.410Z,40.00
2019-03-27T17:25:54.358Z,39.90
2019-03-27T17:28:45.900Z,39.70
2019-03-27T17:34:17.101Z,39.80
2019-03-27T17:36:50.847Z,40.30
2019-03-27T17:39:44.059Z,40.50
2019-03-27T17:42:28.241Z,40.50
2019-03-27T17:45:10.536Z,40.70
2019-03-27T17:47:43.762Z,41.00
2019-03-27T17:50:16.304Z,41.00
2019-03-27T17:53:06.581Z,41.40
2019-03-27T17:55:57.826Z,41.30
2019-03-27T17:58:30.748Z,41.60
2019-03-27T18:01:22.465Z,41.70
2019-03-27T18:03:54.067Z,41.80
2019-03-27T18:06:46.636Z,42.00
2019-03-27T18:12:14.603Z,42.70
2019-03-27T18:15:01.873Z,42.70
2019-03-27T18:17:46.819Z,43.00
2019-03-27T18:23:19.947Z,43.50
2019-03-27T18:25:51.490Z,43.80
2019-03-27T18:28:23.936Z,43.90
2019-03-27T18:31:15.291Z,44.10
2019-03-27T18:33:48.537Z,44.10
2019-03-27T18:36:39.437Z,44.30
2019-03-27T18:39:13.463Z,44.30
2019-03-27T18:42:08.669Z,44.60
2019-03-27T18:44:51.232Z,44.70
2019-03-27T18:47:37.146Z,44.90
2019-03-27T18:50:25.184Z,44.90
2019-03-27T18:53:10.061Z,45.10
2019-03-27T18:55:54.198Z,45.20
2019-03-27T18:58:38.867Z,46.10
2019-03-27T19:01:24.870Z,45.00
2019-03-27T19:06:53.071Z,46.40
2019-03-27T19:09:25.945Z,46.10
2019-03-27T19:12:15.903Z,47.10
2019-03-27T19:17:42.427Z,48.20
2019-03-27T19:20:29.942Z,48.40
2019-03-27T19:23:12.427Z,49.40
2019-03-27T19:25:59.312Z,49.20
2019-03-27T19:28:45.643Z,50.30
2019-03-27T19:31:31.071Z,49.90
2019-03-27T19:34:13.548Z,49.30
2019-03-27T19:36:47.092Z,49.60
2019-03-27T19:39:40.766Z,50.00
2019-03-27T19:42:13.687Z,50.50
2019-03-27T19:45:04.612Z,50.60
2019-03-27T19:50:37.803Z,50.80
2019-03-27T19:56:05.062Z,51.80
2019-03-27T19:58:57.317Z,52.20
2019-03-27T20:01:31.969Z,52.80
2019-03-27T20:04:26.633Z,52.70
2019-03-27T20:07:00.388Z,52.80
2019-03-27T20:12:51.634Z,53.10
2019-03-27T20:18:22.696Z,53.80
2019-03-27T20:21:07.587Z,54.00
2019-03-27T20:23:52.171Z,53.90
2019-03-27T20:26:37.851Z,54.50
2019-03-27T20:29:21.132Z,54.40
2019-03-27T20:32:06.135Z,54.80
2019-03-27T20:34:50.619Z,55.10
2019-03-27T20:37:38.289Z,55.70
2019-03-27T20:40:27.487Z,56.10
2019-03-27T20:45:55.810Z,56.10
2019-03-27T20:51:15.150Z,56.60
2019-03-27T20:53:50.955Z,56.80
2019-03-27T20:57:02.311Z,57.30
2019-03-27T20:59:53.613Z,56.90
2019-03-27T21:02:46.061Z,57.20
2019-03-27T21:08:16.385Z,57.40
2019-03-27T21:11:10.087Z,57.70
2019-03-27T21:13:53.496Z,58.00
2019-03-27T21:16:38.706Z,58.00
2019-03-27T21:19:24.424Z,58.10
2019-03-27T21:24:53.125Z,58.20
2019-03-27T21:27:38.553Z,58.20
2019-03-27T21:30:22.299Z,58.30
2019-03-27T21:33:15.059Z,58.50
2019-03-27T21:35:57.455Z,58.40
2019-03-27T21:38:44.923Z,57.50
2019-03-27T21:41:28.724Z,57.10
2019-03-27T21:44:13.100Z,57.40
2019-03-27T21:47:01.303Z,58.30
2019-03-27T21:49:45.487Z,58.50
2019-03-27T21:52:29.363Z,58.70
2019-03-27T21:55:22.770Z,58.90
2019-03-27T21:58:02.075Z,59.20
2019-03-27T22:00:46.947Z,59.00
2019-03-27T22:03:32.215Z,58.70
2019-03-27T22:06:22.333Z,58.60
2019-03-27T22:09:08.019Z,58.90
2019-03-27T22:14:36.632Z,58.90
2019-03-27T22:17:22.327Z,58.80
2019-03-27T22:20:10.202Z,59.00
2019-03-27T22:22:58.432Z,58.60
2019-03-27T22:25:41.749Z,59.20
2019-03-27T22:31:20.150Z,59.40
2019-03-27T22:36:42.389Z,60.40
2019-03-27T22:39:32.529Z,60.70
2019-03-27T22:42:21.860Z,60.90
2019-03-27T22:50:48.794Z,61.30
2019-03-27T22:53:33.126Z,60.80
2019-03-27T22:56:16.657Z,60.40
2019-03-27T22:59:01.851Z,60.50
2019-03-27T23:01:45.297Z,60.20
2019-03-27T23:04:33.040Z,59.60
2019-03-27T23:07:16.164Z,59.70
2019-03-27T23:10:01.284Z,59.70
2019-03-27T23:12:45.414Z,59.80
2019-03-27T23:15:33.088Z,60.20
2019-03-27T23:18:32.449Z,60.00
2019-03-27T23:24:05.914Z,60.50
2019-03-27T23:29:36.273Z,61.50
2019-03-27T23:32:28.504Z,61.70
2019-03-27T23:35:32.185Z,62.60
2019-03-27T23:41:34.579Z,62.40
2019-03-27T23:47:09.688Z,61.50
2019-03-27T23:52:43.718Z,61.10
2019-03-27T23:55:39.575Z,60.90
2019-03-27T23:58:22.071Z,61.40
